EKCH

Copenhagen Kastrup Airport

Copenhagen, Denmark
METAR EKCH 151450Z 23011KT 9999 FEW030 BKN095 22/16 Q1016 TEMPO SCT030CB
Observed Flight Rules
Aug-15 @ 14:50 UTC (11 minutes ago) Visual Flight Rules
Wind Visibility Clouds
230° at 11 knots 10,000+ meters
  • Few at 3,000' AGL
  • Broken at 9,500' AGL
Temperatures Readings
Current 22°C / 72°F
Dewpoint 16°C / 61°F
Humidity 69%
Altimeter 30" Hg
Pressure 1016 hPa
Elevation 5
METAR EKCH 151450Z 23011KT 9999 FEW030 BKN095 22/16 Q1016 TEMPO SCT030CB
Observed Flight Rules
Aug-15 @ 14:50 UTC
(11 minutes ago)
VFR
Wind Visibility
230° at 11 knots 10,000+ meters
Clouds
  • Few at 3,000' AGL
  • Broken at 9,500' AGL
Temperature Dewpoint
22°C / 72°F 16°C / 61°F
Humidity Altimeter Pressure
69% 30" Hg 1016 hPa